createdAt,value
2018-01-01T00:02:32.794Z,98.09
2018-01-01T00:05:04.160Z,98.14
2018-01-01T00:07:39.753Z,98.21
2018-01-01T00:10:13.760Z,98.27
2018-01-01T00:12:50.062Z,98.27
2018-01-01T00:15:21.002Z,98.30
2018-01-01T00:20:40.245Z,98.46
2018-01-01T00:23:10.997Z,98.43
2018-01-01T00:25:48.049Z,98.42
2018-01-01T00:28:21.193Z,98.50
2018-01-01T00:30:52.223Z,98.60
2018-01-01T00:33:26.416Z,98.52
2018-01-01T00:35:59.472Z,98.52
2018-01-01T00:38:30.254Z,98.59
2018-01-01T00:41:01.064Z,98.61
2018-01-01T00:43:31.903Z,98.60
2018-01-01T00:46:02.751Z,98.50
2018-01-01T00:48:33.482Z,98.52
2018-01-01T00:51:07.409Z,98.53
2018-01-01T00:53:38.336Z,98.43
2018-01-01T00:56:09.100Z,98.37
2018-01-01T00:58:39.865Z,98.30
2018-01-01T01:01:10.644Z,98.22
2018-01-01T01:03:41.416Z,98.19
2018-01-01T01:06:12.240Z,98.24
2018-01-01T01:08:49.788Z,98.24
2018-01-01T01:11:20.565Z,98.33
2018-01-01T01:13:51.372Z,98.20
2018-01-01T01:16:23.659Z,98.18
2018-01-01T01:18:54.497Z,98.16
2018-01-01T01:21:25.284Z,98.20
2018-01-01T01:23:56.062Z,98.47
2018-01-01T01:26:26.835Z,98.42
2018-01-01T01:28:57.596Z,98.42
2018-01-01T01:31:28.381Z,98.29
2018-01-01T01:33:59.161Z,98.15
2018-01-01T01:36:29.935Z,98.00
2018-01-01T01:39:00.690Z,98.00
2018-01-01T01:41:31.500Z,97.98
2018-01-01T01:44:02.266Z,98.03
2018-01-01T01:46:33.028Z,98.05
2018-01-01T01:49:03.793Z,97.93
2018-01-01T01:51:34.588Z,97.87
2018-01-01T01:54:05.375Z,97.95
2018-01-01T01:56:36.657Z,97.89
2018-01-01T01:59:07.714Z,97.86
2018-01-01T02:01:38.660Z,97.70
2018-01-01T02:04:09.414Z,97.53
2018-01-01T02:06:40.185Z,97.50
2018-01-01T02:09:10.940Z,97.47
2018-01-01T02:11:41.712Z,97.56
2018-01-01T02:14:12.474Z,97.50
2018-01-01T02:16:43.338Z,97.42
2018-01-01T02:19:14.093Z,97.21
2018-01-01T02:21:44.868Z,97.13
2018-01-01T02:24:15.624Z,97.18
2018-01-01T02:26:46.407Z,97.17
2018-01-01T02:29:17.172Z,97.06
2018-01-01T02:31:47.950Z,97.15
2018-01-01T02:34:18.715Z,97.31
2018-01-01T02:36:49.532Z,97.30
2018-01-01T02:39:20.293Z,97.04
2018-01-01T02:41:51.072Z,96.89
2018-01-01T02:44:21.813Z,96.68
2018-01-01T02:46:52.576Z,96.73
2018-01-01T02:49:23.349Z,96.84
2018-01-01T02:51:54.101Z,96.63
2018-01-01T02:54:24.847Z,96.60
2018-01-01T02:56:55.618Z,96.66
2018-01-01T02:59:26.367Z,96.36
2018-01-01T03:01:57.133Z,96.31
2018-01-01T03:04:27.881Z,96.32
2018-01-01T03:06:58.673Z,96.23
2018-01-01T03:09:29.427Z,96.18
2018-01-01T03:12:00.173Z,96.16
2018-01-01T03:14:30.913Z,96.20
2018-01-01T03:17:01.676Z,96.12
2018-01-01T03:19:32.413Z,96.06
2018-01-01T03:22:03.160Z,96.09
2018-01-01T03:24:33.905Z,95.94
2018-01-01T03:27:04.672Z,96.18
2018-01-01T03:29:35.417Z,96.31
2018-01-01T03:32:06.184Z,96.35
2018-01-01T03:34:36.941Z,96.45
2018-01-01T03:37:07.753Z,96.35
2018-01-01T03:39:38.477Z,96.37
2018-01-01T03:42:09.258Z,96.27
2018-01-01T03:44:40.037Z,96.25
2018-01-01T03:47:10.808Z,96.11
2018-01-01T03:49:41.552Z,96.15
2018-01-01T03:52:12.301Z,96.13
2018-01-01T03:54:43.039Z,96.20
2018-01-01T03:57:13.797Z,96.21
2018-01-01T03:59:44.554Z,96.20
2018-01-01T04:02:15.311Z,96.18
2018-01-01T04:04:46.060Z,96.20
2018-01-01T04:07:16.819Z,96.27
2018-01-01T04:09:47.548Z,96.39
2018-01-01T04:12:18.314Z,96.20
2018-01-01T04:14:49.061Z,96.30
2018-01-01T04:17:19.828Z,96.20
2018-01-01T04:19:50.588Z,96.13
2018-01-01T04:22:21.345Z,96.08
2018-01-01T04:24:52.110Z,96.03
2018-01-01T04:27:22.861Z,96.04
2018-01-01T04:29:53.613Z,95.95
2018-01-01T04:32:24.360Z,96.05
2018-01-01T04:34:55.105Z,96.12
2018-01-01T04:37:25.866Z,96.07
2018-01-01T04:39:56.634Z,96.12
2018-01-01T04:42:27.397Z,96.05
2018-01-01T04:44:58.136Z,96.09
2018-01-01T04:47:28.892Z,95.96
2018-01-01T04:49:59.632Z,95.84
2018-01-01T04:52:30.409Z,95.91
2018-01-01T04:55:01.140Z,95.99
2018-01-01T04:57:31.908Z,95.92
2018-01-01T05:00:02.686Z,95.92
2018-01-01T05:02:33.468Z,95.89
2018-01-01T05:05:04.231Z,95.99
2018-01-01T05:07:35.013Z,96.10
2018-01-01T05:10:05.757Z,96.14
2018-01-01T05:12:36.522Z,95.82
2018-01-01T05:15:07.291Z,96.07
2018-01-01T05:17:38.064Z,95.84
2018-01-01T05:20:08.795Z,94.67
2018-01-01T05:22:39.557Z,93.56
2018-01-01T05:25:10.291Z,91.90
2018-01-01T05:27:41.065Z,91.37
2018-01-01T05:30:11.812Z,90.91
2018-01-01T05:32:42.567Z,90.46
2018-01-01T05:35:13.319Z,90.35
2018-01-01T05:37:44.078Z,90.16
2018-01-01T05:40:14.851Z,89.87
2018-01-01T05:42:45.756Z,89.89
2018-01-01T05:45:16.548Z,90.40
2018-01-01T05:47:47.346Z,90.38
2018-01-01T05:50:18.100Z,90.52
2018-01-01T05:52:48.864Z,90.67
2018-01-01T05:55:19.620Z,90.28
2018-01-01T05:57:50.398Z,90.33
2018-01-01T06:00:21.159Z,90.42
2018-01-01T06:02:51.921Z,90.24
2018-01-01T06:05:22.684Z,89.69
2018-01-01T06:07:53.436Z,90.08
2018-01-01T06:10:24.178Z,89.32
2018-01-01T06:12:54.958Z,89.67
2018-01-01T06:15:25.705Z,89.21
2018-01-01T06:17:56.472Z,89.42
2018-01-01T06:20:27.244Z,89.01
2018-01-01T06:22:57.992Z,89.04
2018-01-01T06:25:28.733Z,89.19
2018-01-01T06:27:59.512Z,89.25
2018-01-01T06:30:30.262Z,88.88
2018-01-01T06:33:01.031Z,88.95
2018-01-01T06:35:31.781Z,87.71
2018-01-01T06:38:02.545Z,87.42
2018-01-01T06:40:33.313Z,87.08
2018-01-01T06:43:04.078Z,87.10
2018-01-01T06:45:34.824Z,86.98
2018-01-01T06:48:05.601Z,86.65
2018-01-01T06:50:36.366Z,86.19
2018-01-01T06:53:07.148Z,85.88
2018-01-01T06:55:37.913Z,85.58
2018-01-01T06:58:08.672Z,84.67
2018-01-01T07:00:39.425Z,84.18
2018-01-01T07:03:10.200Z,83.78
2018-01-01T07:05:40.970Z,84.55
2018-01-01T07:08:11.760Z,83.90
2018-01-01T07:10:42.512Z,84.18
2018-01-01T07:13:13.289Z,83.53
2018-01-01T07:15:44.044Z,83.16
2018-01-01T07:18:14.821Z,83.38
2018-01-01T07:20:45.578Z,83.23
2018-01-01T07:23:16.362Z,82.93
2018-01-01T07:25:47.111Z,82.90
2018-01-01T07:28:17.868Z,82.69
2018-01-01T07:30:48.616Z,82.29
2018-01-01T07:33:19.484Z,81.79
2018-01-01T07:35:51.588Z,81.97
2018-01-01T07:38:22.412Z,81.72
2018-01-01T07:40:53.482Z,81.46
2018-01-01T07:43:24.634Z,81.63
2018-01-01T07:45:55.456Z,80.27
2018-01-01T07:48:26.280Z,80.67
2018-01-01T07:50:57.052Z,80.33
2018-01-01T07:53:28.183Z,80.21
2018-01-01T07:56:00.396Z,80.08
2018-01-01T07:58:31.559Z,78.98
2018-01-01T08:01:02.332Z,79.05
2018-01-01T08:03:33.120Z,78.90
2018-01-01T08:06:03.862Z,79.43
2018-01-01T08:08:34.642Z,78.35
2018-01-01T08:11:05.384Z,78.57
2018-01-01T08:13:36.292Z,78.51
2018-01-01T08:16:07.040Z,78.21
2018-01-01T08:18:37.870Z,78.57
2018-01-01T08:21:08.656Z,78.15
2018-01-01T08:23:40.252Z,77.60
2018-01-01T08:26:11.649Z,77.51
2018-01-01T08:28:42.549Z,78.07
2018-01-01T08:31:13.320Z,77.65
2018-01-01T08:33:44.077Z,77.68
2018-01-01T08:36:14.815Z,77.67
2018-01-01T08:38:45.613Z,78.14
2018-01-01T08:41:16.373Z,78.65
2018-01-01T08:43:48.231Z,78.17
2018-01-01T08:46:19.636Z,77.96
2018-01-01T08:48:50.449Z,77.43
2018-01-01T08:51:21.211Z,76.86
2018-01-01T08:53:52.118Z,78.37
2018-01-01T08:56:22.881Z,77.68
2018-01-01T08:58:53.660Z,76.26
2018-01-01T09:01:24.413Z,77.63
2018-01-01T09:03:55.179Z,77.21
2018-01-01T09:06:25.955Z,76.38
2018-01-01T09:08:56.939Z,76.88
2018-01-01T09:11:27.689Z,77.67
2018-01-01T09:13:58.462Z,79.67
2018-01-01T09:16:29.378Z,80.20
2018-01-01T09:19:00.799Z,79.63
2018-01-01T09:21:37.629Z,79.69
2018-01-01T09:24:08.401Z,79.92
2018-01-01T09:26:39.167Z,80.42
2018-01-01T09:29:10.092Z,80.21
2018-01-01T09:31:40.852Z,81.45
2018-01-01T09:34:11.624Z,81.00
2018-01-01T09:36:44.409Z,81.33
2018-01-01T09:39:15.164Z,79.97
2018-01-01T09:41:45.936Z,79.90
2018-01-01T09:44:16.714Z,79.64
2018-01-01T09:46:48.468Z,79.24
2018-01-01T09:49:19.253Z,80.17
2018-01-01T09:51:50.138Z,78.26
2018-01-01T09:54:20.904Z,77.32
2018-01-01T09:56:51.726Z,77.62
2018-01-01T09:59:22.456Z,76.94
2018-01-01T10:01:53.216Z,76.82
2018-01-01T10:04:23.992Z,76.51
2018-01-01T10:06:54.821Z,76.66
2018-01-01T10:09:25.681Z,76.19
2018-01-01T10:11:56.474Z,75.60
2018-01-01T10:14:27.256Z,74.89
2018-01-01T10:16:58.039Z,75.36
2018-01-01T10:19:28.805Z,74.61
2018-01-01T10:21:59.570Z,74.68
2018-01-01T10:24:30.345Z,73.68
2018-01-01T10:27:01.247Z,74.03
2018-01-01T10:29:34.133Z,72.87
2018-01-01T10:32:04.883Z,73.36
2018-01-01T10:34:42.688Z,74.06
2018-01-01T10:37:13.461Z,73.46
2018-01-01T10:39:44.330Z,73.39
2018-01-01T10:42:15.151Z,73.97
2018-01-01T10:44:45.918Z,72.38
2018-01-01T10:47:16.704Z,72.94
2018-01-01T10:49:47.489Z,73.50
2018-01-01T10:52:18.244Z,73.60
2018-01-01T10:54:49.013Z,72.08
2018-01-01T10:57:19.764Z,73.64
2018-01-01T10:59:50.532Z,72.20
2018-01-01T11:02:21.273Z,74.07
2018-01-01T11:04:52.059Z,73.06
2018-01-01T11:07:22.808Z,73.06
2018-01-01T11:09:53.577Z,73.03
2018-01-01T11:12:24.319Z,72.24
2018-01-01T11:14:55.085Z,71.22
2018-01-01T11:17:25.835Z,69.42
2018-01-01T11:19:56.627Z,69.87
2018-01-01T11:22:27.404Z,70.09
2018-01-01T11:24:58.336Z,70.10
2018-01-01T11:27:29.131Z,68.43
2018-01-01T11:29:59.920Z,69.87
2018-01-01T11:32:30.687Z,69.05
2018-01-01T11:35:01.468Z,69.84
2018-01-01T11:37:32.199Z,70.54
2018-01-01T11:40:03.005Z,68.99
2018-01-01T11:42:34.548Z,69.76
2018-01-01T11:45:05.369Z,70.53
2018-01-01T11:47:36.186Z,72.18
2018-01-01T11:50:07.025Z,73.82
2018-01-01T11:52:38.850Z,76.58
2018-01-01T11:55:10.789Z,79.15
2018-01-01T11:57:41.552Z,77.44
2018-01-01T12:00:12.434Z,77.12
2018-01-01T12:02:43.280Z,78.84
2018-01-01T12:05:14.085Z,76.54
2018-01-01T12:07:45.156Z,75.28
2018-01-01T12:10:16.072Z,75.83
2018-01-01T12:12:46.852Z,74.13
2018-01-01T12:15:17.617Z,73.51
2018-01-01T12:17:48.393Z,72.16
2018-01-01T12:20:19.225Z,72.04
2018-01-01T12:22:50.161Z,71.66
2018-01-01T12:25:20.993Z,70.16
2018-01-01T12:27:51.850Z,70.70
2018-01-01T12:30:22.699Z,69.62
2018-01-01T12:32:53.486Z,68.71
2018-01-01T12:35:24.370Z,67.38
2018-01-01T12:37:55.163Z,68.46
2018-01-01T12:40:26.148Z,68.02
2018-01-01T12:42:56.928Z,66.64
2018-01-01T12:45:27.735Z,65.67
2018-01-01T12:47:58.564Z,67.42
2018-01-01T12:50:29.456Z,64.94
2018-01-01T12:53:00.228Z,64.82
2018-01-01T12:55:31.050Z,63.23
2018-01-01T12:58:01.846Z,64.73
2018-01-01T13:00:32.662Z,61.51
2018-01-01T13:03:03.466Z,64.32
2018-01-01T13:05:34.252Z,62.79
2018-01-01T13:08:05.242Z,64.80
2018-01-01T13:10:36.407Z,65.28
2018-01-01T13:13:07.259Z,62.37
2018-01-01T13:15:39.189Z,63.40
2018-01-01T13:18:11.031Z,63.71
2018-01-01T13:20:41.807Z,64.03
2018-01-01T13:23:12.557Z,62.88
2018-01-01T13:25:43.430Z,60.88
2018-01-01T13:28:14.289Z,62.28
2018-01-01T13:30:45.083Z,61.76
2018-01-01T13:33:16.013Z,62.56
2018-01-01T13:35:46.861Z,63.37
2018-01-01T13:38:17.661Z,64.06
2018-01-01T13:40:48.665Z,63.95
2018-01-01T13:43:19.412Z,64.46
2018-01-01T13:45:50.210Z,66.69
2018-01-01T13:48:20.944Z,66.61
2018-01-01T13:50:53.909Z,66.08
2018-01-01T13:53:24.660Z,66.09
2018-01-01T13:55:55.466Z,65.64
2018-01-01T13:58:26.218Z,65.23
2018-01-01T14:00:56.967Z,66.10
2018-01-01T14:03:27.758Z,65.21
2018-01-01T14:05:58.509Z,65.23
2018-01-01T14:08:29.323Z,62.89
2018-01-01T14:11:00.096Z,64.65
2018-01-01T14:13:30.886Z,63.51
2018-01-01T14:16:01.663Z,63.20
2018-01-01T14:18:32.458Z,65.81
2018-01-01T14:21:03.266Z,66.77
2018-01-01T14:23:34.075Z,64.52
2018-01-01T14:26:06.841Z,64.85
2018-01-01T14:28:37.588Z,65.81
2018-01-01T14:31:08.416Z,65.51
2018-01-01T14:33:39.198Z,65.49
2018-01-01T14:36:10.015Z,65.90
2018-01-01T14:38:40.799Z,65.97
2018-01-01T14:41:11.641Z,66.86
2018-01-01T14:43:42.558Z,67.63
2018-01-01T14:46:13.475Z,67.36
2018-01-01T14:48:44.347Z,67.21
2018-01-01T14:51:15.599Z,68.91
2018-01-01T14:53:46.463Z,68.47
2018-01-01T14:56:17.340Z,69.32
2018-01-01T14:58:48.535Z,70.35
2018-01-01T15:01:19.707Z,70.70
2018-01-01T15:04:00.824Z,70.18
2018-01-01T15:06:31.762Z,69.65
2018-01-01T15:09:05.864Z,71.19
2018-01-01T15:11:39.163Z,71.23
2018-01-01T15:14:10.017Z,71.23
2018-01-01T15:16:40.971Z,71.31
2018-01-01T15:19:16.500Z,71.48
2018-01-01T15:21:47.516Z,71.27
2018-01-01T15:24:18.421Z,72.35
2018-01-01T15:26:49.339Z,73.96
2018-01-01T15:29:20.226Z,73.19
2018-01-01T15:31:51.195Z,74.50
2018-01-01T15:34:22.377Z,75.51
2018-01-01T15:36:53.270Z,76.05
2018-01-01T15:39:24.157Z,76.44
2018-01-01T15:41:55.062Z,77.07
2018-01-01T15:44:25.966Z,78.62
2018-01-01T15:46:56.910Z,77.97
2018-01-01T15:49:27.782Z,78.45
2018-01-01T15:51:58.686Z,79.10
2018-01-01T15:54:29.616Z,79.33
2018-01-01T15:57:00.526Z,78.25
2018-01-01T15:59:53.662Z,79.17
2018-01-01T16:02:31.613Z,79.09
2018-01-01T16:05:02.674Z,79.51
2018-01-01T16:07:33.629Z,79.39
2018-01-01T16:10:05.678Z,80.03
2018-01-01T16:12:36.601Z,80.18
2018-01-01T16:15:07.547Z,81.27
2018-01-01T16:17:38.456Z,81.18
2018-01-01T16:20:09.352Z,81.99
2018-01-01T16:22:45.719Z,83.16
2018-01-01T16:25:16.644Z,82.91
2018-01-01T16:27:47.529Z,83.69
2018-01-01T16:30:18.435Z,84.12
2018-01-01T16:36:08.525Z,84.35
2018-01-01T16:38:39.454Z,85.07
2018-01-01T16:41:10.488Z,85.34
2018-01-01T16:43:41.581Z,85.49
2018-01-01T16:46:12.568Z,85.90
2018-01-01T16:48:43.533Z,85.69
2018-01-01T16:51:14.440Z,85.59
2018-01-01T16:53:45.346Z,85.77
2018-01-01T16:56:16.350Z,86.14
2018-01-01T16:58:47.356Z,86.21
2018-01-01T17:01:18.281Z,85.67
2018-01-01T17:03:49.343Z,85.32
2018-01-01T17:06:27.344Z,85.27
2018-01-01T17:08:58.309Z,85.84
2018-01-01T17:11:37.584Z,86.63
2018-01-01T17:14:08.551Z,86.93
2018-01-01T17:16:39.464Z,87.07
2018-01-01T17:19:10.356Z,86.78
2018-01-01T17:21:41.303Z,86.59
2018-01-01T17:24:12.234Z,86.41
2018-01-01T17:26:49.546Z,85.57
2018-01-01T17:29:20.480Z,85.85
2018-01-01T17:31:51.480Z,85.85
2018-01-01T17:34:22.514Z,86.57
2018-01-01T17:36:53.658Z,86.58
2018-01-01T17:39:24.633Z,87.07
2018-01-01T17:41:58.606Z,87.23
2018-01-01T17:44:29.765Z,87.30
2018-01-01T17:47:00.694Z,87.37
2018-01-01T17:49:31.696Z,87.30
2018-01-01T17:52:02.682Z,87.67
2018-01-01T17:54:33.617Z,88.37
2018-01-01T17:57:04.733Z,88.48
2018-01-01T17:59:35.841Z,88.60
2018-01-01T18:02:06.799Z,88.64
2018-01-01T18:04:37.741Z,88.69
2018-01-01T18:07:08.653Z,87.95
2018-01-01T18:09:39.652Z,87.44
2018-01-01T18:12:10.586Z,86.49
2018-01-01T18:14:41.541Z,86.09
2018-01-01T18:17:12.478Z,85.66
2018-01-01T18:19:43.401Z,84.73
2018-01-01T18:22:14.346Z,84.48
2018-01-01T18:24:45.277Z,84.44
2018-01-01T18:27:16.180Z,84.02
2018-01-01T18:29:47.126Z,83.33
2018-01-01T18:32:18.025Z,83.50
2018-01-01T18:34:48.999Z,83.34
2018-01-01T18:37:19.885Z,82.81
2018-01-01T18:39:50.889Z,82.84
2018-01-01T18:42:21.886Z,83.17
2018-01-01T18:44:52.786Z,82.55
2018-01-01T18:47:23.732Z,82.73
2018-01-01T18:49:54.834Z,83.17
2018-01-01T18:52:25.788Z,83.91
2018-01-01T18:54:56.695Z,83.39
2018-01-01T18:57:27.590Z,84.17
2018-01-01T18:59:58.570Z,83.99
2018-01-01T19:02:29.500Z,84.23
2018-01-01T19:05:00.972Z,84.20
2018-01-01T19:07:31.888Z,84.66
2018-01-01T19:10:02.829Z,84.58
2018-01-01T19:12:34.681Z,84.79
2018-01-01T19:15:05.733Z,84.59
2018-01-01T19:17:36.744Z,84.85
2018-01-01T19:20:07.711Z,84.94
2018-01-01T19:22:38.655Z,84.89
2018-01-01T19:25:09.605Z,84.76
2018-01-01T19:27:41.656Z,85.49
2018-01-01T19:30:13.306Z,85.14
2018-01-01T19:32:48.141Z,85.36
2018-01-01T19:35:19.151Z,85.68
2018-01-01T19:37:50.071Z,85.96
2018-01-01T19:40:21.016Z,85.55
2018-01-01T19:42:51.887Z,85.96
2018-01-01T19:45:22.822Z,85.86
2018-01-01T19:47:53.720Z,85.77
2018-01-01T19:50:24.641Z,85.83
2018-01-01T19:52:55.624Z,85.50
2018-01-01T19:55:26.507Z,85.40
2018-01-01T19:57:57.601Z,85.78
2018-01-01T20:00:29.334Z,85.51
2018-01-01T20:03:00.237Z,85.60
2018-01-01T20:05:31.251Z,85.56
2018-01-01T20:08:02.406Z,85.50
2018-01-01T20:10:33.406Z,85.59
2018-01-01T20:13:04.921Z,85.98
2018-01-01T20:15:39.211Z,85.90
2018-01-01T20:18:10.150Z,85.88
2018-01-01T20:20:41.153Z,85.38
2018-01-01T20:23:12.196Z,84.67
2018-01-01T20:25:48.687Z,85.87
2018-01-01T20:28:20.042Z,84.84
2018-01-01T20:30:50.981Z,85.53
2018-01-01T20:33:21.904Z,85.57
2018-01-01T20:35:52.831Z,86.19
2018-01-01T20:38:23.830Z,86.23
2018-01-01T20:40:54.909Z,86.20
2018-01-01T20:43:25.883Z,85.92
2018-01-01T20:45:56.812Z,86.43
2018-01-01T20:48:29.646Z,86.61
2018-01-01T20:51:11.587Z,86.49
2018-01-01T20:53:42.583Z,87.11
2018-01-01T20:56:13.633Z,88.02
2018-01-01T20:58:44.549Z,88.67
2018-01-01T21:01:15.492Z,89.54
2018-01-01T21:03:47.291Z,89.55
2018-01-01T21:06:18.323Z,89.89
2018-01-01T21:08:49.229Z,90.40
2018-01-01T21:11:20.219Z,90.01
2018-01-01T21:13:51.135Z,89.98
2018-01-01T21:16:22.077Z,90.22
2018-01-01T21:19:06.191Z,90.12
2018-01-01T21:21:37.088Z,90.28
2018-01-01T21:24:08.076Z,89.53
2018-01-01T21:26:39.046Z,89.68
2018-01-01T21:29:10.095Z,90.13
2018-01-01T21:31:41.346Z,90.50
2018-01-01T21:34:12.378Z,90.87
2018-01-01T21:36:43.654Z,91.24
2018-01-01T21:39:15.700Z,91.80
2018-01-01T21:41:47.732Z,91.55
2018-01-01T21:44:18.704Z,91.78
2018-01-01T21:46:49.626Z,92.07
2018-01-01T21:49:20.632Z,92.16
2018-01-01T21:51:51.636Z,92.12
2018-01-01T21:54:22.609Z,92.79
2018-01-01T21:56:53.836Z,92.93
2018-01-01T21:59:24.740Z,93.15
2018-01-01T22:01:55.765Z,93.17
2018-01-01T22:04:26.691Z,93.07
2018-01-01T22:06:57.909Z,92.80
2018-01-01T22:09:28.870Z,93.16
2018-01-01T22:11:59.873Z,93.20
2018-01-01T22:14:30.912Z,93.28
2018-01-01T22:17:01.884Z,93.39
2018-01-01T22:19:32.897Z,93.76
2018-01-01T22:22:03.912Z,94.05
2018-01-01T22:24:35.249Z,94.13
2018-01-01T22:27:06.189Z,93.83
2018-01-01T22:29:37.213Z,93.98
2018-01-01T22:32:08.164Z,93.90
2018-01-01T22:34:39.124Z,93.87
2018-01-01T22:37:10.101Z,93.92
2018-01-01T22:39:41.051Z,93.96
2018-01-01T22:42:12.152Z,94.07
2018-01-01T22:44:43.085Z,93.84
2018-01-01T22:47:14.007Z,94.11
2018-01-01T22:49:45.004Z,94.43
2018-01-01T22:52:15.864Z,94.72
2018-01-01T22:54:46.776Z,94.65
2018-01-01T22:57:17.789Z,94.88
2018-01-01T22:59:48.726Z,94.97
2018-01-01T23:02:19.677Z,94.76
2018-01-01T23:04:50.589Z,95.16
2018-01-01T23:07:21.602Z,95.14
2018-01-01T23:09:52.576Z,95.42
2018-01-01T23:12:23.501Z,95.29
2018-01-01T23:14:54.452Z,95.40
2018-01-01T23:17:25.409Z,95.64
2018-01-01T23:19:56.347Z,95.43
2018-01-01T23:22:27.300Z,95.61
2018-01-01T23:24:58.758Z,95.35
2018-01-01T23:27:29.652Z,95.70
2018-01-01T23:30:00.577Z,95.86
2018-01-01T23:32:31.502Z,95.90
2018-01-01T23:35:02.459Z,95.67
2018-01-01T23:37:33.453Z,95.60
2018-01-01T23:40:04.418Z,95.76
2018-01-01T23:42:35.502Z,95.69
2018-01-01T23:45:06.396Z,95.74
2018-01-01T23:47:37.476Z,95.91
2018-01-01T23:50:08.378Z,96.01
2018-01-01T23:52:39.340Z,95.94
2018-01-01T23:55:10.266Z,95.98
2018-01-01T23:57:41.212Z,96.23
